Time;durP1;ratioP1;P1;durP2;ratioP2;P2;SDS_P1;SDS_P2;PMS_P1;PMS_P2;Temp;Humidity;BMP_temperature;BMP_pressure;BME280_temperature;BME280_humidity;BME280_pressure;Samples;Min_cycle;Max_cycle;Signal;HPM_P1;HPM_P2
2021/12/19 00:00:42;;;;;;;10.55;3.88;;;;;;;1.50;89.61;99702.72;4859786;29;20112;-51
2021/12/19 00:09:09;;;;;;;10.85;3.90;;;;;;;1.55;89.40;99695.81;4861453;29;20037;-50
2021/12/19 00:11:29;;;;;;;10.77;3.90;;;;;;;1.55;88.16;99685.47;4878970;29;20069;-52
2021/12/19 00:13:54;;;;;;;10.70;3.90;;;;;;;1.74;88.34;99682.72;4877098;29;20037;-51
2021/12/19 00:16:20;;;;;;;10.90;3.70;;;;;;;1.69;87.76;99676.69;4869429;29;20077;-48
2021/12/19 00:18:47;;;;;;;10.20;3.42;;;;;;;1.81;88.28;99684.34;4871902;29;20033;-51
2021/12/19 00:21:15;;;;;;;9.48;3.53;;;;;;;1.96;86.88;99671.28;4874682;29;20116;-51
2021/12/19 00:23:40;;;;;;;9.25;3.40;;;;;;;1.93;87.39;99671.31;4861302;29;20082;-50
2021/12/19 00:26:05;;;;;;;8.93;3.22;;;;;;;2.11;86.64;99665.09;4863164;29;20435;-52
2021/12/19 00:28:31;;;;;;;10.27;4.07;;;;;;;1.70;87.87;99662.91;4878176;29;20030;-53
2021/12/19 00:30:56;;;;;;;10.88;4.20;;;;;;;1.54;88.80;99667.34;4863048;29;20033;-51
2021/12/19 00:33:22;;;;;;;9.43;4.43;;;;;;;1.44;89.22;99656.22;4874509;29;20443;-49
2021/12/19 00:35:47;;;;;;;10.52;3.88;;;;;;;1.50;88.62;99660.50;4880045;29;20029;-51
2021/12/19 00:38:12;;;;;;;11.73;3.95;;;;;;;1.36;89.61;99652.88;4879521;29;20025;-49
2021/12/19 00:40:38;;;;;;;10.02;3.90;;;;;;;1.25;89.67;99655.53;4870424;29;20033;-47
2021/12/19 00:43:07;;;;;;;10.43;3.40;;;;;;;1.46;89.00;99657.09;4863943;29;20482;-49
2021/12/19 00:45:35;;;;;;;9.00;3.38;;;;;;;1.59;88.59;99650.09;4873873;29;20618;-51
2021/12/19 00:48:01;;;;;;;10.57;3.53;;;;;;;1.78;87.79;99641.25;4873022;29;20499;-47
2021/12/19 00:50:27;;;;;;;9.68;3.50;;;;;;;2.05;86.59;99645.28;4878979;29;20044;-50
2021/12/19 00:52:52;;;;;;;8.45;2.97;;;;;;;1.99;86.86;99647.94;4873080;29;20037;-49
2021/12/19 00:55:19;;;;;;;11.32;3.38;;;;;;;1.90;87.08;99650.66;4872102;29;20021;-48
2021/12/19 00:57:44;;;;;;;9.52;3.60;;;;;;;1.80;87.70;99649.88;4880312;29;20035;-51
2021/12/19 01:00:11;;;;;;;9.00;3.38;;;;;;;1.87;87.19;99645.50;4880282;29;20029;-49
2021/12/19 01:02:36;;;;;;;9.23;2.90;;;;;;;2.05;86.94;99639.25;4872122;29;20547;-49
2021/12/19 01:05:03;;;;;;;8.63;2.92;;;;;;;2.05;86.21;99636.66;4862211;29;20474;-47
2021/12/19 01:07:28;;;;;;;8.93;3.47;;;;;;;2.19;85.68;99644.28;4863609;29;20036;-47
2021/12/19 01:09:54;;;;;;;11.05;3.38;;;;;;;2.20;85.62;99658.94;4863340;29;20025;-48
2021/12/19 01:12:19;;;;;;;9.50;3.13;;;;;;;1.94;86.84;99657.50;4879433;29;20043;-52
2021/12/19 01:14:44;;;;;;;8.75;3.15;;;;;;;2.00;87.15;99657.44;4879512;29;20064;-48
2021/12/19 01:17:10;;;;;;;10.63;3.22;;;;;;;2.11;86.34;99653.00;4874486;29;20025;-48
2021/12/19 01:19:35;;;;;;;9.80;3.40;;;;;;;2.17;86.43;99646.00;4873272;29;20084;-48
2021/12/19 01:22:01;;;;;;;8.57;3.38;;;;;;;1.99;87.23;99645.34;4880119;29;20033;-50
2021/12/19 01:24:26;;;;;;;8.65;3.15;;;;;;;2.17;86.25;99639.13;4871292;29;20029;-51
2021/12/19 01:26:51;;;;;;;9.70;3.40;;;;;;;2.08;86.59;99631.47;4869726;29;20503;-49
2021/12/19 01:29:17;;;;;;;9.65;3.90;;;;;;;2.12;86.23;99639.16;4865750;29;20034;-51
2021/12/19 01:31:43;;;;;;;11.15;3.90;;;;;;;1.97;87.46;99648.84;4867640;29;20056;-51
2021/12/19 01:34:12;;;;;;;9.35;3.17;;;;;;;1.90;87.72;99645.47;4865478;29;20049;-48
2021/12/19 01:36:41;;;;;;;10.70;3.60;;;;;;;2.02;87.48;99637.56;4879413;29;20067;-49
2021/12/19 01:39:07;;;;;;;10.88;4.03;;;;;;;2.02;86.66;99642.72;4866436;29;20033;-50
2021/12/19 01:41:32;;;;;;;9.52;3.13;;;;;;;1.79;87.97;99642.13;4862104;29;20028;-47
2021/12/19 01:43:58;;;;;;;10.20;3.90;;;;;;;2.03;87.28;99635.81;4861706;29;20029;-49
2021/12/19 01:46:23;;;;;;;10.50;3.83;;;;;;;2.11;87.51;99642.63;4874554;29;20398;-49
2021/12/19 01:48:49;;;;;;;10.27;3.83;;;;;;;2.24;86.35;99634.75;4865148;29;20029;-49
2021/12/19 01:51:14;;;;;;;11.27;3.40;;;;;;;2.25;86.38;99637.28;4862398;29;20088;-47
2021/12/19 01:53:39;;;;;;;12.75;4.88;;;;;;;2.16;86.93;99628.78;4865863;29;20560;-49
2021/12/19 01:56:07;;;;;;;11.38;3.78;;;;;;;2.13;87.38;99627.97;4878678;29;20025;-48
2021/12/19 01:58:32;;;;;;;10.40;3.75;;;;;;;2.08;87.00;99629.72;4863984;29;20025;-50
2021/12/19 02:00:58;;;;;;;10.88;4.10;;;;;;;2.13;87.28;99627.06;4864763;29;20041;-50
2021/12/19 02:03:23;;;;;;;11.25;4.07;;;;;;;1.76;88.44;99622.31;4878383;29;20029;-52
2021/12/19 02:05:49;;;;;;;10.07;3.88;;;;;;;2.12;87.12;99621.03;4879867;29;20061;-47
2021/12/19 02:08:14;;;;;;;11.75;4.82;;;;;;;1.97;87.79;99617.78;4878606;29;20029;-48
2021/12/19 02:10:40;;;;;;;12.60;5.28;;;;;;;1.74;88.67;99612.84;4871842;29;20045;-50
2021/12/19 02:13:07;;;;;;;11.63;3.95;;;;;;;1.79;89.08;99605.91;4861538;29;20097;-48
2021/12/19 02:15:32;;;;;;;12.48;5.18;;;;;;;1.76;89.43;99600.78;4877860;29;20028;-50
2021/12/19 02:18:04;;;;;;;11.63;4.53;;;;;;;1.77;89.24;99597.31;4869414;29;20032;-48
2021/12/19 02:20:34;;;;;;;10.07;3.85;;;;;;;2.07;88.24;99601.28;4861822;29;20034;-49
2021/12/19 02:23:00;;;;;;;10.70;3.90;;;;;;;2.03;88.16;99595.28;4882529;29;20030;-49
2021/12/19 02:25:25;;;;;;;9.43;3.40;;;;;;;2.00;88.00;99592.75;4861237;29;20056;-49
2021/12/19 02:27:51;;;;;;;9.65;3.67;;;;;;;2.18;87.19;99601.16;4862192;29;20018;-52
2021/12/19 02:30:16;;;;;;;11.40;3.58;;;;;;;1.99;88.02;99588.41;4862118;29;20046;-51
2021/12/19 02:32:42;;;;;;;13.63;4.57;;;;;;;1.92;89.01;99591.94;4861202;29;20379;-49
2021/12/19 02:35:11;;;;;;;10.55;4.30;;;;;;;1.91;88.70;99590.25;4865657;29;20116;-47
2021/12/19 02:40:31;;;;;;;10.43;3.80;;;;;;;2.43;86.19;99599.09;4862775;29;20037;-51
2021/12/19 02:48:18;;;;;;;11.35;4.20;;;;;;;2.08;87.98;99577.97;4861788;29;20481;-51
2021/12/19 02:50:48;;;;;;;10.15;4.10;;;;;;;2.28;87.24;99588.06;4879170;29;20049;-47
2021/12/19 02:53:14;;;;;;;10.57;3.10;;;;;;;2.23;87.25;99582.06;4868287;29;20029;-51
2021/12/19 02:55:40;;;;;;;8.30;3.53;;;;;;;2.31;86.96;99579.41;4861795;29;20249;-48
2021/12/19 02:58:05;;;;;;;9.90;3.25;;;;;;;2.12;88.50;99579.63;4863433;29;20025;-49
2021/12/19 03:00:31;;;;;;;8.90;3.22;;;;;;;2.17;88.12;99573.53;4872549;29;20029;-51
2021/12/19 03:02:56;;;;;;;8.40;2.90;;;;;;;2.44;86.69;99572.31;4875424;29;20297;-48
2021/12/19 03:05:21;;;;;;;8.80;3.67;;;;;;;2.50;85.95;99565.31;4860256;29;20131;-50
2021/12/19 03:07:49;;;;;;;9.05;3.60;;;;;;;2.65;85.79;99573.75;4864739;29;20033;-51
2021/12/19 03:18:11;;;;;;;9.75;3.63;;;;;;;2.48;86.66;99551.56;4874017;29;20089;-50
2021/12/19 03:20:37;;;;;;;9.65;3.28;;;;;;;2.21;87.50;99554.53;4866525;29;20029;-48
2021/12/19 03:23:03;;;;;;;9.63;3.35;;;;;;;2.31;87.59;99548.34;4860419;29;20387;-51
2021/12/19 03:25:29;;;;;;;8.75;2.90;;;;;;;2.36;87.44;99554.31;4861154;29;20036;-50
2021/12/19 03:27:54;;;;;;;9.73;3.30;;;;;;;2.31;87.32;99543.16;4877915;29;20108;-49
2021/12/19 03:30:20;;;;;;;9.88;3.72;;;;;;;2.37;86.93;99548.22;4874093;29;20024;-50
2021/12/19 03:32:45;;;;;;;10.02;3.67;;;;;;;2.27;87.59;99541.47;4865591;29;20474;-49
2021/12/19 03:35:10;;;;;;;10.20;3.53;;;;;;;1.94;89.14;99541.06;4865629;29;20474;-52
2021/12/19 03:37:36;;;;;;;11.48;3.53;;;;;;;2.16;88.44;99531.25;4862762;29;20060;-49
2021/12/19 03:40:10;;;;;;;10.40;3.40;;;;;;;2.35;87.74;99531.88;4869185;29;20097;-46
2021/12/19 03:42:43;;;;;;;8.05;2.88;;;;;;;2.52;86.83;99531.66;4861609;29;20033;-50
2021/12/19 03:45:11;;;;;;;9.25;3.28;;;;;;;2.55;86.23;99523.84;4860016;29;20025;-50
2021/12/19 03:47:37;;;;;;;9.88;3.40;;;;;;;2.45;87.16;99525.69;4877127;29;20092;-48
2021/12/19 03:50:04;;;;;;;9.07;3.67;;;;;;;2.23;87.93;99517.34;4877497;29;20117;-48
2021/12/19 03:52:29;;;;;;;8.90;3.22;;;;;;;2.08;87.97;99520.16;4871587;29;20111;-47
2021/12/19 03:54:56;;;;;;;10.95;4.20;;;;;;;2.21;87.86;99524.31;4866248;29;20105;-48
2021/12/19 03:57:21;;;;;;;9.70;3.65;;;;;;;2.19;88.52;99522.59;4859189;29;20030;-48
2021/12/19 03:59:48;;;;;;;11.05;3.33;;;;;;;2.28;87.63;99525.94;4863756;29;20036;-50
2021/12/19 04:02:22;;;;;;;9.73;3.45;;;;;;;2.44;87.75;99518.78;4874283;29;20030;-52
2021/12/19 04:04:47;;;;;;;10.18;3.58;;;;;;;2.63;85.97;99527.16;4860557;29;20037;-48
2021/12/19 04:07:13;;;;;;;8.88;3.40;;;;;;;2.51;86.09;99504.00;4864358;29;20101;-49
2021/12/19 04:09:38;;;;;;;10.45;3.83;;;;;;;2.46;86.51;99517.03;4878113;29;20045;-48
2021/12/19 04:12:04;;;;;;;10.18;3.40;;;;;;;2.39;87.12;99507.66;4875415;29;20032;-48
2021/12/19 04:14:29;;;;;;;9.57;3.15;;;;;;;2.47;86.23;99508.38;4862001;29;20033;-50
2021/12/19 04:16:55;;;;;;;8.57;3.40;;;;;;;2.47;86.78;99508.38;4859824;29;20036;-51
2021/12/19 04:19:20;;;;;;;9.70;3.60;;;;;;;2.29;87.42;99509.50;4864261;29;20224;-51
2021/12/19 04:21:46;;;;;;;9.18;3.38;;;;;;;2.38;87.09;99498.19;4869890;29;20035;-52
2021/12/19 04:24:12;;;;;;;12.32;3.72;;;;;;;2.13;88.05;99493.34;4862319;29;20156;-51
2021/12/19 04:26:37;;;;;;;10.77;3.92;;;;;;;1.87;89.58;99474.72;4870676;29;20510;-49
2021/12/19 04:29:02;;;;;;;9.52;3.20;;;;;;;2.30;88.27;99484.47;4859137;29;20028;-51
2021/12/19 04:31:28;;;;;;;9.73;3.28;;;;;;;2.08;88.04;99484.78;4871804;29;20044;-48
2021/12/19 04:33:54;;;;;;;10.85;4.00;;;;;;;2.34;87.62;99486.13;4866557;29;20025;-47
2021/12/19 04:36:26;;;;;;;11.35;3.85;;;;;;;2.23;88.48;99493.22;4876544;29;20041;-50
2021/12/19 04:55:36;;;;;;;8.77;3.50;;;;;;;2.41;87.16;99472.25;4866242;29;20061;-51
2021/12/19 04:58:19;;;;;;;8.20;3.35;;;;;;;2.24;88.37;99469.91;4860746;29;20037;-50
2021/12/19 05:01:01;;;;;;;8.43;3.15;;;;;;;2.32;87.83;99469.78;4859352;29;20132;-51
2021/12/19 05:14:22;;;;;;;7.88;2.90;;;;;;;2.46;86.54;99460.06;4876117;29;20116;-51
2021/12/19 05:16:48;;;;;;;8.07;3.03;;;;;;;2.64;86.51;99458.06;4879459;29;20508;-48
2021/12/19 05:21:46;;;;;;;6.82;2.92;;;;;;;2.43;86.57;99456.66;4862513;29;20169;-48
2021/12/19 05:26:47;;;;;;;6.38;2.40;;;;;;;2.62;86.00;99460.69;4875986;29;20068;-52
2021/12/19 05:29:13;;;;;;;5.97;2.47;;;;;;;2.68;84.43;99464.88;4863038;29;20029;-50
2021/12/19 05:31:38;;;;;;;6.10;2.20;;;;;;;2.64;84.75;99463.25;4862615;29;20500;-48
2021/12/19 05:34:03;;;;;;;5.40;2.30;;;;;;;2.53;84.59;99456.50;4880460;29;20029;-51
2021/12/19 05:44:11;;;;;;;7.63;2.65;;;;;;;2.49;85.33;99449.66;4877411;29;20029;-52
2021/12/19 05:47:16;;;;;;;6.15;2.58;;;;;;;2.35;86.13;99451.63;4868074;29;20033;-51
2021/12/19 05:49:42;;;;;;;6.78;2.55;;;;;;;2.30;86.38;99449.06;4887485;29;20033;-51
2021/12/19 05:52:07;;;;;;;7.63;3.05;;;;;;;2.31;85.97;99460.31;4861921;29;20026;-47
2021/12/19 05:54:33;;;;;;;6.18;2.83;;;;;;;2.47;85.90;99451.41;4876015;29;20033;-49
2021/12/19 05:56:58;;;;;;;7.20;2.75;;;;;;;2.53;85.14;99453.91;4875084;29;20033;-49
2021/12/19 05:59:23;;;;;;;8.52;3.50;;;;;;;2.30;86.09;99456.00;4862751;29;20409;-47
2021/12/19 06:01:49;;;;;;;8.60;3.53;;;;;;;2.33;86.27;99453.34;4864060;29;20030;-48
2021/12/19 06:04:14;;;;;;;7.15;2.95;;;;;;;2.50;84.68;99453.94;4862282;29;20026;-50
2021/12/19 06:06:39;;;;;;;6.53;2.53;;;;;;;2.58;84.49;99452.09;4863052;29;20036;-48
2021/12/19 06:09:05;;;;;;;7.90;3.20;;;;;;;2.30;85.47;99450.81;4862588;29;20031;-50
2021/12/19 06:11:31;;;;;;;6.90;2.85;;;;;;;2.30;85.50;99430.94;4862731;29;20037;-51
2021/12/19 06:13:57;;;;;;;6.65;2.60;;;;;;;2.26;86.20;99444.81;4871941;29;20037;-48
2021/12/19 06:16:22;;;;;;;5.72;2.50;;;;;;;2.45;84.67;99439.38;4877552;29;20032;-48
2021/12/19 06:18:47;;;;;;;8.38;3.15;;;;;;;2.36;84.97;99432.59;4861560;29;20478;-52
2021/12/19 06:21:13;;;;;;;5.90;2.38;;;;;;;2.54;84.06;99428.84;4862818;29;20029;-48
2021/12/19 06:23:39;;;;;;;6.88;3.00;;;;;;;2.41;85.17;99435.09;4864616;29;20041;-47
2021/12/19 06:26:04;;;;;;;7.00;3.22;;;;;;;2.36;85.69;99430.00;4879911;29;20409;-48
2021/12/19 06:28:30;;;;;;;7.22;3.17;;;;;;;2.56;84.91;99438.31;4878246;29;20053;-47
2021/12/19 06:30:56;;;;;;;6.53;2.92;;;;;;;2.45;84.59;99437.66;4871540;29;20449;-51
2021/12/19 06:33:21;;;;;;;7.50;3.17;;;;;;;2.56;84.30;99438.31;4869875;29;20034;-53
2021/12/19 06:35:46;;;;;;;7.13;3.20;;;;;;;2.60;84.31;99429.59;4875896;29;20041;-49
2021/12/19 06:38:14;;;;;;;6.80;3.30;;;;;;;2.78;83.39;99430.16;4874096;29;20021;-49
2021/12/19 06:40:39;;;;;;;7.32;3.50;;;;;;;2.42;84.75;99414.38;4875372;29;20064;-49
2021/12/19 06:43:05;;;;;;;7.75;3.80;;;;;;;2.55;84.05;99418.50;4877518;29;20025;-53
2021/12/19 06:45:30;;;;;;;7.43;3.22;;;;;;;2.38;84.84;99410.13;4878203;29;20481;-51
2021/12/19 06:47:55;;;;;;;7.47;3.60;;;;;;;2.31;84.92;99419.75;4877371;29;20021;-52
2021/12/19 06:50:21;;;;;;;7.43;3.38;;;;;;;2.54;84.07;99416.75;4879590;29;20040;-53
2021/12/19 06:52:47;;;;;;;6.47;2.75;;;;;;;2.57;84.14;99424.47;4869706;29;20566;-49
2021/12/19 06:55:13;;;;;;;7.32;3.35;;;;;;;2.27;85.61;99418.09;4876162;29;20040;-49
2021/12/19 06:57:38;;;;;;;7.40;3.35;;;;;;;2.40;85.25;99408.38;4861640;29;20033;-52
2021/12/19 07:00:15;;;;;;;8.30;4.20;;;;;;;2.50;84.96;99412.50;4861045;29;20085;-52
2021/12/19 07:02:40;;;;;;;8.25;3.75;;;;;;;2.50;85.28;99420.28;4864138;29;20036;-51
2021/12/19 07:05:06;;;;;;;6.72;3.20;;;;;;;2.54;84.97;99410.72;4878980;29;20031;-52
2021/12/19 07:07:31;;;;;;;8.00;3.25;;;;;;;2.64;84.44;99412.28;4867057;29;20406;-50
2021/12/19 07:09:57;;;;;;;7.50;3.40;;;;;;;2.74;83.90;99412.97;4860897;29;20089;-48
2021/12/19 07:12:26;;;;;;;7.05;3.15;;;;;;;2.72;83.45;99417.31;4860568;29;20055;-50
2021/12/19 07:14:51;;;;;;;7.35;3.20;;;;;;;2.76;83.41;99411.22;4875266;29;20029;-50
2021/12/19 07:17:17;;;;;;;8.30;3.60;;;;;;;2.57;84.01;99421.88;4879022;29;20033;-50
2021/12/19 07:19:42;;;;;;;9.57;3.88;;;;;;;2.23;85.97;99431.94;4864554;29;20029;-51
2021/12/19 07:22:08;;;;;;;7.22;3.45;;;;;;;2.55;84.94;99428.84;4860547;29;20036;-52
2021/12/19 07:24:33;;;;;;;7.40;3.50;;;;;;;2.64;83.76;99426.97;4867530;29;20029;-53
2021/12/19 07:26:58;;;;;;;7.40;3.35;;;;;;;2.39;84.92;99422.19;4866812;29;20032;-50
2021/12/19 07:29:24;;;;;;;7.65;3.42;;;;;;;2.56;84.96;99421.94;4867810;29;20501;-53
2021/12/19 07:31:49;;;;;;;9.40;4.00;;;;;;;2.44;84.99;99414.34;4873683;29;20041;-50
2021/12/19 07:34:14;;;;;;;9.52;4.60;;;;;;;2.47;85.02;99416.88;4860986;29;20074;-52
2021/12/19 07:36:45;;;;;;;9.18;3.95;;;;;;;2.56;84.62;99409.81;4868357;29;20029;-51
2021/12/19 07:39:23;;;;;;;8.87;3.73;;;;;;;2.51;85.54;99416.84;4875743;29;20112;-52
2021/12/19 07:41:48;;;;;;;8.40;3.75;;;;;;;2.65;84.79;99402.75;4876730;29;20033;-51
2021/12/19 07:44:14;;;;;;;9.95;4.07;;;;;;;2.61;84.56;99402.84;4878513;29;20461;-52
2021/12/19 07:46:39;;;;;;;11.38;5.13;;;;;;;2.56;85.67;99396.03;4867676;29;20040;-48
2021/12/19 07:49:04;;;;;;;9.50;4.63;;;;;;;2.73;84.39;99390.56;4861275;29;20026;-49
2021/12/19 07:51:30;;;;;;;10.45;4.45;;;;;;;2.90;83.85;99398.88;4877144;29;20450;-49
2021/12/19 07:53:55;;;;;;;9.13;4.70;;;;;;;2.88;84.09;99390.25;4878248;29;20029;-49
2021/12/19 07:56:21;;;;;;;11.02;4.63;;;;;;;2.71;85.13;99389.72;4874576;29;20033;-51
2021/12/19 07:58:46;;;;;;;11.85;5.75;;;;;;;2.52;85.10;99387.47;4865219;29;20033;-49
2021/12/19 08:01:11;;;;;;;10.30;5.40;;;;;;;2.58;85.13;99392.53;4862723;29;20498;-50
2021/12/19 08:03:37;;;;;;;10.38;5.32;;;;;;;2.50;85.99;99380.59;4859580;29;20037;-49
2021/12/19 08:06:02;;;;;;;10.35;4.95;;;;;;;2.77;84.78;99371.47;4872867;29;20406;-48
2021/12/19 08:08:32;;;;;;;9.85;4.68;;;;;;;2.86;84.64;99371.31;4863460;29;20451;-46
2021/12/19 08:13:41;;;;;;;35.95;16.92;;;;;;;2.56;85.36;99362.34;4874384;29;20040;-49
2021/12/19 08:16:06;;;;;;;19.38;8.95;;;;;;;2.57;85.20;99367.50;4878012;29;20033;-48
2021/12/19 08:18:32;;;;;;;18.08;7.68;;;;;;;2.65;85.59;99362.19;4870384;29;20033;-51
2021/12/19 08:20:57;;;;;;;17.05;8.60;;;;;;;2.57;85.03;99351.94;4878262;29;20037;-50
2021/12/19 08:23:22;;;;;;;12.93;6.38;;;;;;;2.82;84.08;99360.16;4867127;29;20033;-52
2021/12/19 08:25:48;;;;;;;13.40;6.20;;;;;;;3.00;83.95;99353.75;4871807;29;20051;-50
2021/12/19 08:28:13;;;;;;;11.82;6.03;;;;;;;3.05;83.91;99351.06;4874258;29;20029;-47
2021/12/19 08:30:39;;;;;;;13.23;6.22;;;;;;;2.85;84.18;99348.84;4877901;29;20947;-48
2021/12/19 08:33:04;;;;;;;10.65;5.43;;;;;;;3.13;83.50;99348.31;4870733;29;20042;-52
2021/12/19 08:35:29;;;;;;;17.35;9.20;;;;;;;2.84;84.72;99341.97;4865336;29;20033;-47
2021/12/19 08:37:55;;;;;;;12.93;6.15;;;;;;;2.71;85.77;99332.72;4873716;29;20054;-48
2021/12/19 08:40:22;;;;;;;12.07;5.93;;;;;;;2.82;84.88;99323.00;4868392;29;20032;-51
2021/12/19 08:42:48;;;;;;;19.58;8.63;;;;;;;2.84;85.66;99326.41;4874162;29;20048;-50
2021/12/19 08:45:15;;;;;;;16.90;8.15;;;;;;;3.13;84.44;99322.38;4880561;29;20028;-49
2021/12/19 08:47:40;;;;;;;19.48;10.13;;;;;;;3.01;84.16;99320.91;4872733;29;20439;-51
2021/12/19 08:50:06;;;;;;;14.68;8.18;;;;;;;3.07;83.77;99319.03;4867380;29;20490;-50
2021/12/19 08:52:32;;;;;;;25.92;15.00;;;;;;;3.04;83.62;99326.88;4874397;29;20446;-51
2021/12/19 08:54:57;;;;;;;16.98;8.38;;;;;;;2.91;85.06;99322.81;4875561;29;20033;-49
2021/12/19 08:57:23;;;;;;;24.27;12.68;;;;;;;2.81;85.48;99316.13;4869332;29;20025;-49
2021/12/19 08:59:48;;;;;;;17.83;8.98;;;;;;;2.77;84.96;99320.50;4875174;29;20037;-50
2021/12/19 09:02:13;;;;;;;14.75;7.45;;;;;;;2.88;84.65;99320.28;4875956;29;20068;-52
2021/12/19 09:04:39;;;;;;;16.92;7.90;;;;;;;3.07;84.11;99323.38;4873246;29;20029;-48
2021/12/19 09:07:04;;;;;;;17.33;8.40;;;;;;;2.90;84.31;99305.56;4878149;29;20040;-53
2021/12/19 09:09:29;;;;;;;16.10;8.20;;;;;;;3.08;83.98;99323.34;4875580;29;20020;-48
2021/12/19 09:11:55;;;;;;;25.35;13.77;;;;;;;2.80;84.36;99317.00;4873503;29;20037;-48
2021/12/19 09:14:20;;;;;;;14.18;6.35;;;;;;;2.95;84.06;99319.28;4874714;29;20041;-48
2021/12/19 09:16:46;;;;;;;17.77;7.95;;;;;;;2.97;84.39;99317.53;4863116;29;20029;-48
2021/12/19 09:19:12;;;;;;;15.93;7.43;;;;;;;2.94;84.03;99314.13;4865742;29;20025;-52
2021/12/19 09:21:38;;;;;;;29.50;18.73;;;;;;;3.01;83.60;99319.16;4867794;29;20116;-50
2021/12/19 09:24:04;;;;;;;19.02;9.52;;;;;;;3.01;83.93;99316.56;4883514;29;20031;-50
2021/12/19 09:26:29;;;;;;;14.40;7.30;;;;;;;3.01;83.83;99313.97;4887423;29;20068;-51
2021/12/19 09:28:54;;;;;;;18.63;9.88;;;;;;;3.03;83.11;99306.19;4861924;29;20034;-48
2021/12/19 09:31:21;;;;;;;15.48;7.38;;;;;;;3.04;83.31;99306.16;4869938;29;20037;-48
2021/12/19 09:33:47;;;;;;;15.65;7.53;;;;;;;2.99;83.49;99301.94;4877007;29;20112;-52
2021/12/19 09:36:12;;;;;;;17.38;9.07;;;;;;;2.97;84.44;99304.56;4881207;29;20088;-51
2021/12/19 09:38:37;;;;;;;13.27;6.85;;;;;;;3.16;82.64;99307.63;4879285;29;20485;-48
2021/12/19 09:41:12;;;;;;;20.48;9.98;;;;;;;2.92;84.18;99298.59;4878193;29;20037;-51
2021/12/19 09:43:42;;;;;;;15.18;6.80;;;;;;;2.96;83.63;99294.22;4875741;29;20104;-50
2021/12/19 09:46:12;;;;;;;14.50;7.07;;;;;;;3.02;83.09;99300.13;4880305;29;20025;-48
2021/12/19 09:48:39;;;;;;;15.23;6.20;;;;;;;2.94;83.60;99307.22;4869127;29;20032;-50
2021/12/19 09:51:04;;;;;;;26.55;12.93;;;;;;;2.94;83.81;99286.47;4875918;29;20433;-52
2021/12/19 09:53:30;;;;;;;27.58;13.48;;;;;;;2.95;84.25;99284.75;4874087;29;20035;-52
2021/12/19 09:55:55;;;;;;;18.38;8.82;;;;;;;2.86;84.51;99290.97;4875616;29;20033;-49
2021/12/19 09:58:20;;;;;;;19.30;8.90;;;;;;;2.96;84.36;99289.91;4879040;29;20370;-50
2021/12/19 10:00:46;;;;;;;23.27;11.00;;;;;;;2.94;84.83;99283.91;4878579;29;20036;-51
2021/12/19 10:03:11;;;;;;;24.33;11.35;;;;;;;3.04;84.55;99272.44;4873261;29;20033;-47
2021/12/19 10:05:37;;;;;;;25.30;11.48;;;;;;;3.09;83.61;99259.38;4872727;29;20065;-52
2021/12/19 10:08:03;;;;;;;22.25;10.70;;;;;;;2.76;84.32;99260.97;4876314;29;20033;-51
2021/12/19 10:10:54;;;;;;;16.70;8.25;;;;;;;2.94;83.54;99257.13;4879193;29;20461;-51
2021/12/19 10:13:33;;;;;;;15.48;8.05;;;;;;;3.02;84.01;99248.28;4884949;29;20446;-51
2021/12/19 10:15:58;;;;;;;19.33;10.25;;;;;;;3.05;83.67;99258.59;4871439;29;20030;-48
2021/12/19 10:18:23;;;;;;;15.05;7.68;;;;;;;3.11;83.59;99252.44;4876498;29;20028;-50
2021/12/19 10:20:50;;;;;;;15.50;7.72;;;;;;;3.00;83.24;99239.72;4878041;29;20040;-48
2021/12/19 10:23:20;;;;;;;15.10;7.70;;;;;;;3.04;83.05;99245.69;4867914;29;20029;-48
2021/12/19 10:26:06;;;;;;;16.23;8.13;;;;;;;3.09;83.54;99239.50;4876000;29;20119;-49
2021/12/19 10:28:32;;;;;;;23.42;11.38;;;;;;;3.08;83.38;99235.19;4867262;29;20044;-48
2021/12/19 10:30:58;;;;;;;18.10;8.90;;;;;;;3.10;83.77;99230.00;4877193;29;20407;-48
2021/12/19 10:33:28;;;;;;;16.77;8.88;;;;;;;3.17;83.26;99230.72;4875919;29;20040;-50
2021/12/19 10:35:55;;;;;;;26.17;12.85;;;;;;;3.01;83.83;99225.84;4876520;29;20037;-52
2021/12/19 10:38:26;;;;;;;15.95;7.88;;;;;;;3.17;82.10;99215.16;4877230;29;20025;-48
2021/12/19 10:40:55;;;;;;;15.35;7.90;;;;;;;3.22;82.63;99213.31;4884430;29;20450;-52
2021/12/19 10:43:22;;;;;;;15.52;8.25;;;;;;;3.23;82.86;99215.84;4873887;29;20033;-51
2021/12/19 10:45:49;;;;;;;14.68;7.35;;;;;;;3.19;82.17;99208.19;4866262;29;20148;-48
2021/12/19 10:48:20;;;;;;;14.27;7.32;;;;;;;3.09;83.02;99198.00;4867067;29;20029;-50
2021/12/19 10:50:45;;;;;;;13.77;7.10;;;;;;;3.14;83.10;99204.88;4871765;29;20493;-50
2021/12/19 10:53:11;;;;;;;14.60;7.90;;;;;;;3.15;82.75;99185.81;4874744;29;20124;-45
2021/12/19 10:55:39;;;;;;;16.45;8.00;;;;;;;3.03;82.57;99184.38;4876136;29;20329;-48
2021/12/19 10:58:18;;;;;;;15.18;7.35;;;;;;;3.02;82.52;99178.31;4877141;29;20089;-48
2021/12/19 11:01:14;;;;;;;14.38;7.18;;;;;;;2.86;83.45;99176.97;4877342;29;20037;-47
2021/12/19 11:03:45;;;;;;;15.60;7.40;;;;;;;2.94;83.57;99166.44;4834724;29;20062;-48
2021/12/19 11:06:25;;;;;;;16.17;8.45;;;;;;;3.01;83.52;99166.25;4837107;29;20065;-48
2021/12/19 11:08:51;;;;;;;16.58;8.45;;;;;;;3.02;83.62;99162.75;4837441;29;20034;-47
2021/12/19 11:11:34;;;;;;;15.38;7.63;;;;;;;3.08;83.77;99169.56;4837797;29;20125;-50
2021/12/19 11:14:00;;;;;;;15.15;7.93;;;;;;;2.96;82.96;99162.03;4831985;29;20130;-47
2021/12/19 11:16:25;;;;;;;16.25;7.95;;;;;;;3.09;82.73;99161.72;4835228;29;20046;-47
2021/12/19 11:18:51;;;;;;;36.00;16.83;;;;;;;3.01;83.08;99153.28;4834814;29;20542;-52
2021/12/19 11:21:18;;;;;;;20.48;9.82;;;;;;;3.03;82.71;99146.34;4836874;29;20493;-48
2021/12/19 11:23:44;;;;;;;14.82;7.40;;;;;;;3.08;82.83;99154.00;4834929;29;20034;-51
2021/12/19 11:26:10;;;;;;;17.85;9.48;;;;;;;2.97;83.51;99148.22;4836564;29;20117;-51
2021/12/19 11:28:35;;;;;;;18.00;10.55;;;;;;;2.92;83.04;99143.13;4829357;29;20074;-48
2021/12/19 11:31:00;;;;;;;19.00;9.00;;;;;;;3.01;83.11;99134.28;4838592;29;20034;-50
2021/12/19 11:33:28;;;;;;;17.52;8.25;;;;;;;3.15;82.38;99132.22;4834273;29;20094;-48
2021/12/19 11:35:54;;;;;;;17.10;9.18;;;;;;;3.03;82.93;99120.41;4838775;29;20422;-49
2021/12/19 11:38:20;;;;;;;16.95;9.60;;;;;;;2.93;83.67;99125.84;4809437;29;20555;-47
2021/12/19 11:40:45;;;;;;;14.90;7.18;;;;;;;3.15;82.22;99106.31;4849551;29;20127;-51
2021/12/19 11:43:11;;;;;;;18.42;9.80;;;;;;;2.92;82.63;99106.84;4875995;29;20575;-46
2021/12/19 11:45:43;;;;;;;13.25;6.80;;;;;;;3.01;82.39;99106.63;4876805;29;20036;-49
2021/12/19 11:48:16;;;;;;;17.00;8.40;;;;;;;3.06;82.47;99109.97;4876637;29;20056;-48
2021/12/19 11:50:53;;;;;;;16.15;6.97;;;;;;;3.01;82.53;99111.81;4876616;29;20049;-49
2021/12/19 11:53:19;;;;;;;14.48;7.13;;;;;;;2.92;82.73;99106.84;4877296;29;20078;-49
2021/12/19 11:55:48;;;;;;;14.13;6.75;;;;;;;2.87;83.06;99097.47;4876465;29;20057;-48
2021/12/19 11:58:14;;;;;;;21.50;10.07;;;;;;;2.84;83.53;99095.81;4878090;29;20029;-49
2021/12/19 12:00:47;;;;;;;16.60;8.57;;;;;;;2.87;83.31;99077.59;4875668;29;20041;-51
2021/12/19 12:03:12;;;;;;;15.82;6.95;;;;;;;2.91;82.56;99068.88;4875508;29;20032;-48
2021/12/19 12:05:38;;;;;;;15.40;7.32;;;;;;;2.84;82.79;99069.91;4871388;29;20029;-47
2021/12/19 12:08:03;;;;;;;14.80;6.68;;;;;;;2.83;83.27;99065.63;4859299;29;20036;-49
2021/12/19 12:10:55;;;;;;;16.08;7.20;;;;;;;2.89;82.90;99060.28;4869608;29;20048;-47
2021/12/19 12:13:27;;;;;;;17.33;8.95;;;;;;;2.79;82.62;99053.63;4874420;29;20028;-48
2021/12/19 12:16:00;;;;;;;16.27;7.55;;;;;;;2.79;83.10;99053.63;4878002;29;20033;-49
2021/12/19 12:18:29;;;;;;;13.52;6.68;;;;;;;2.79;83.52;99049.28;4873326;29;20109;-48
2021/12/19 12:20:55;;;;;;;14.18;6.88;;;;;;;2.78;83.65;99042.38;4864238;29;20444;-47
2021/12/19 12:23:25;;;;;;;13.98;7.20;;;;;;;2.88;83.66;99040.44;4865453;29;20062;-51
2021/12/19 12:25:50;;;;;;;17.40;8.80;;;;;;;2.77;83.95;99032.06;4881821;29;20025;-51
2021/12/19 12:28:17;;;;;;;19.48;10.95;;;;;;;3.00;83.24;99037.56;4877068;29;20036;-51
2021/12/19 12:30:46;;;;;;;15.90;8.15;;;;;;;3.04;83.31;99023.63;4863988;29;20033;-51
2021/12/19 12:33:14;;;;;;;17.92;9.00;;;;;;;3.18;82.87;99028.47;4866524;29;20155;-46
2021/12/19 12:35:40;;;;;;;15.10;6.90;;;;;;;3.07;82.21;99014.94;4863024;29;20034;-47
2021/12/19 12:38:06;;;;;;;15.00;7.03;;;;;;;3.01;83.12;99013.31;4866898;29;20025;-51
2021/12/19 12:40:46;;;;;;;13.55;6.63;;;;;;;3.11;82.72;99010.50;4879934;29;20120;-48